Terminal Aerodrome Forecast
Issued by NWS Tuscon, AZ

Current Version | Previous Version | Text Only | Print | Product List | Glossary On
Versions: 1 2 3 4 5 6 7 8 9 10 11 12 13 14 15
064
FTUS45 KTWC 010206 AAA
TAFTUS
TAF AMD
KTUS 010206Z 0102/0124 32006KT P6SM SKC
     FM010600 14006KT P6SM SKC
     FM011600 VRB03KT P6SM SKC
     FM012000 31008KT P6SM SKC=

USA.gov is the U.S. government's official web portal to all federal, state and local government web resources and services.